Hlavní strana
METAR-TAF:

METAR-TAF

Letiště :

Fás, Maroko

zeměpisná šířka: 33-56N, zeměpisná délka: 004-59W, výška: 579 m

Aktuální stav počasí

Zpráva byla vytvořena před 27 minutami, v 13:00 UTC
Severozápadní vítr 6 kt, proměnlivý mezi západním a severním
Teplota 23°C
Vlhkost vzduchu 29%
Tlak 1028 hPa
Viditelnost 10 km a více
Žádná oblačnost pod 1500 m, nevyskytují se cumulonimby.

METAR: GMFF 171300Z 32006KT 280V350 CAVOK 23/04 Q1028 NOSIG

Čas: 14:27 (13:27 UTC)

Předpověď počasí

Zpráva byla vytvořena před 2 hodinami a 27 minutami, v 11:00 UTC
Předpověď platná od 17 v 12 UTC do 18 v 18 UTC
Západoseverozápadní vítr 6 kt
Viditelnost 10 km a více
Žádná oblačnost pod 1500 m, nevyskytují se cumulonimby.
Pravděpodobnost 40% :
Dočasný
od 18 v 04 UTC do 18 v 10 UTC
Viditelnost: 3000 m
Oblačno až skoro zataženo ve výšce 1000 ft
kouřmo

TAF: GMFF 171100Z 1712/1818 30006KT CAVOK PROB40 TEMPO 1804/1810 3000 BR BKN010

Stav a předpovědi počasí z více než 4 000 letišť (zprávy METAR a TAF).

Červené a žluté tečky na mapě představují dostupné meteorologické stanice.

Když kurzor umístíte na tečku, zobrazí se název stanice.

Pak kliknutím zobrazíte stav a předpověď počasí.

Chcete-li změnit mapu, kliknutím na zelené tlačítko se znaménkem +mapu přiblížíte, kliknutím na zelené tlačítko se znaménkem – mapu oddálíte a kliknutím na zelené šipky přejdete na sousední mapy.


METAR-TAF: